createdAt,value
2019-02-15T00:05:01.556Z,5.78
2019-02-15T00:10:05.191Z,5.81
2019-02-15T00:15:07.508Z,5.84
2019-02-15T00:20:16.474Z,5.79
2019-02-15T00:25:19.405Z,5.71
2019-02-15T00:30:22.503Z,5.66
2019-02-15T00:35:24.690Z,5.61
2019-02-15T00:40:26.946Z,5.59
2019-02-15T00:45:31.324Z,5.54
2019-02-15T00:50:56.156Z,5.46
2019-02-15T00:56:16.835Z,5.40
2019-02-15T01:01:37.806Z,5.35
2019-02-15T01:07:02.811Z,5.26
2019-02-15T01:12:14.587Z,5.19
2019-02-15T01:17:16.806Z,5.14
2019-02-15T01:22:19.675Z,5.10
2019-02-15T01:27:41.463Z,5.00
2019-02-15T01:32:56.218Z,4.93
2019-02-15T01:38:20.166Z,4.87
2019-02-15T01:43:39.766Z,4.80
2019-02-15T01:48:36.065Z,4.78
2019-02-15T01:53:39.143Z,4.77
2019-02-15T01:58:41.654Z,4.80
2019-02-15T02:03:44.387Z,4.80
2019-02-15T02:08:47.763Z,4.73
2019-02-15T02:13:50.863Z,4.71
2019-02-15T02:18:53.330Z,4.75
2019-02-15T02:23:56.366Z,4.75
2019-02-15T02:28:59.475Z,4.71
2019-02-15T02:34:02.511Z,4.62
2019-02-15T02:39:04.747Z,4.55
2019-02-15T02:44:09.207Z,4.52
2019-02-15T02:49:12.087Z,4.50
2019-02-15T02:54:14.566Z,4.50
2019-02-15T02:59:17.783Z,4.48
2019-02-15T03:04:20.889Z,4.45
2019-02-15T03:09:23.380Z,4.41
2019-02-15T03:14:26.481Z,4.38
2019-02-15T03:19:29.005Z,4.32
2019-02-15T03:24:31.524Z,4.25
2019-02-15T03:29:34.040Z,4.26
2019-02-15T03:34:36.616Z,4.27
2019-02-15T03:39:50.377Z,4.26
2019-02-15T03:44:52.537Z,4.27
2019-02-15T03:49:54.954Z,4.24
2019-02-15T03:54:57.407Z,4.23
2019-02-15T04:00:00.945Z,4.21
2019-02-15T04:05:04.311Z,4.18
2019-02-15T04:10:07.806Z,4.08
2019-02-15T04:15:10.833Z,3.99
2019-02-15T04:20:13.724Z,3.96
2019-02-15T04:25:16.012Z,3.94
2019-02-15T04:30:18.720Z,3.91
2019-02-15T04:35:20.944Z,3.89
2019-02-15T04:40:23.461Z,3.82
2019-02-15T04:45:25.670Z,3.76
2019-02-15T04:50:27.891Z,3.75
2019-02-15T04:55:30.340Z,3.69
2019-02-15T05:00:32.907Z,3.60
2019-02-15T05:05:35.129Z,3.53
2019-02-15T05:10:38.144Z,3.49
2019-02-15T05:15:40.677Z,3.44
2019-02-15T05:20:43.521Z,3.42
2019-02-15T05:25:47.037Z,3.42
2019-02-15T05:30:50.502Z,3.47
2019-02-15T05:35:52.984Z,3.48
2019-02-15T05:40:55.190Z,3.47
2019-02-15T05:45:57.344Z,3.40
2019-02-15T05:51:00.130Z,3.36
2019-02-15T05:56:03.156Z,3.39
2019-02-15T06:01:06.019Z,3.36
2019-02-15T06:06:08.301Z,3.32
2019-02-15T06:11:10.833Z,3.36
2019-02-15T06:16:13.706Z,3.36
2019-02-15T06:21:16.415Z,3.36
2019-02-15T06:26:19.816Z,3.37
2019-02-15T06:31:22.123Z,3.35
2019-02-15T06:36:26.591Z,3.32
2019-02-15T06:41:29.864Z,3.34
2019-02-15T06:46:33.342Z,3.38
2019-02-15T06:51:35.583Z,3.29
2019-02-15T06:56:38.956Z,3.20
2019-02-15T07:02:00.787Z,3.13
2019-02-15T07:07:03.064Z,3.13
2019-02-15T07:12:06.348Z,3.10
2019-02-15T07:17:08.584Z,3.13
2019-02-15T07:22:11.375Z,3.18
2019-02-15T07:27:14.651Z,3.26
2019-02-15T07:32:17.798Z,3.42
2019-02-15T07:37:20.004Z,3.53
2019-02-15T07:42:22.463Z,3.60
2019-02-15T07:47:25.082Z,3.69
2019-02-15T07:52:27.982Z,3.80
2019-02-15T07:57:30.156Z,3.91
2019-02-15T08:02:32.958Z,4.11
2019-02-15T08:07:35.337Z,4.71
2019-02-15T08:12:37.649Z,5.53
2019-02-15T08:17:39.936Z,6.22
2019-02-15T08:22:42.736Z,6.75
2019-02-15T08:27:45.817Z,7.22
2019-02-15T08:32:48.220Z,7.69
2019-02-15T08:37:50.704Z,8.06
2019-02-15T08:42:52.861Z,8.31
2019-02-15T08:47:55.060Z,8.48
2019-02-15T08:52:57.338Z,8.94
2019-02-15T08:58:00.043Z,9.47
2019-02-15T09:03:03.105Z,9.96
2019-02-15T09:08:06.104Z,10.45
2019-02-15T09:13:08.665Z,10.85
2019-02-15T09:18:11.854Z,11.48
2019-02-15T09:23:14.856Z,12.21
2019-02-15T09:28:29.163Z,12.83
2019-02-15T09:33:31.540Z,13.42
2019-02-15T09:38:34.576Z,13.90
2019-02-15T09:43:37.813Z,14.11
2019-02-15T09:48:40.674Z,14.26
2019-02-15T09:53:43.226Z,14.34
2019-02-15T09:58:45.386Z,14.51
2019-02-15T10:03:48.161Z,14.76
2019-02-15T10:08:50.459Z,14.83
2019-02-15T10:13:52.718Z,15.41
2019-02-15T10:18:54.834Z,15.83
2019-02-15T10:23:57.382Z,16.07
2019-02-15T10:29:00.567Z,16.62
2019-02-15T22:39:26.733Z,16.62
2019-02-15T22:44:29.012Z,16.62
2019-02-15T22:49:31.172Z,8.74
2019-02-15T22:54:33.899Z,8.70
2019-02-15T22:59:36.099Z,8.60
2019-02-15T23:04:38.266Z,8.50
2019-02-15T23:09:40.425Z,8.45
2019-02-15T23:14:43.060Z,8.44
2019-02-15T23:19:45.283Z,8.36
2019-02-15T23:24:47.504Z,8.26
2019-02-15T23:29:49.676Z,8.19
2019-02-15T23:34:51.910Z,8.16
2019-02-15T23:39:54.113Z,8.20
2019-02-15T23:44:56.739Z,8.19
2019-02-15T23:49:59.865Z,8.21
2019-02-15T23:55:02.674Z,8.22
